RJA168 RJBD-RJCM
Flight info
| Callsign | RJA168 |
|---|---|
| Flight time | N/A |
| Altitude | 35000 |
| Route | KEC Y415 NATCH GTC V31 AWASI GINGA |
| Aircraft | B738/M-SDE2E3FGHIRWXY/LB1 |
Departure
| Time | 2026-04-15 10:32 |
|---|---|
| Airport | Nanki Shirahama Airport (RJBD) |
Arrival
| Time | N/A |
|---|---|
| Airport | Memanbetsu Airport (RJCM) |
| Time | Latitude | Longitude | Altitude | Speed | Heading |
|---|---|---|---|---|---|
| 2026-04-15 10:21 | 33.66522 | 135.36029 | 312 ft | 0 kts | 321° |
| 2026-04-15 10:22 | 33.66277 | 135.36092 | 313 ft | 0 kts | 231° |
| 2026-04-15 10:27 | 33.66283 | 135.36101 | 312 ft | 3 kts | 231° |
| 2026-04-15 10:27 | 33.66304 | 135.36131 | 310 ft | 5 kts | 250° |
| 2026-04-15 10:27 | 33.66287 | 135.36160 | 309 ft | 0 kts | 354° |
| 2026-04-15 10:28 | 33.66301 | 135.36159 | 308 ft | 6 kts | 355° |
| 2026-04-15 10:28 | 33.66361 | 135.36215 | 302 ft | 15 kts | 48° |
| 2026-04-15 10:28 | 33.66454 | 135.36234 | 299 ft | 15 kts | 325° |
| 2026-04-15 10:28 | 33.66527 | 135.36163 | 304 ft | 11 kts | 321° |
| 2026-04-15 10:29 | 33.66601 | 135.36092 | 308 ft | 16 kts | 321° |
| 2026-04-15 10:29 | 33.66703 | 135.35996 | 313 ft | 19 kts | 321° |
| 2026-04-15 10:29 | 33.66808 | 135.35895 | 315 ft | 15 kts | 321° |
| 2026-04-15 10:29 | 33.66864 | 135.35800 | 316 ft | 10 kts | 294° |
| 2026-04-15 10:30 | 33.66911 | 135.35782 | 316 ft | 8 kts | 83° |
| 2026-04-15 10:30 | 33.66877 | 135.35832 | 316 ft | 0 kts | 140° |
| 2026-04-15 10:31 | 33.66864 | 135.35843 | 316 ft | 16 kts | 141° |
| 2026-04-15 10:31 | 33.66523 | 135.36171 | 303 ft | 107 kts | 140° |
| 2026-04-15 10:31 | 33.65743 | 135.36925 | 340 ft | 173 kts | 139° |
| 2026-04-15 10:31 | 33.64710 | 135.37793 | 843 ft | 189 kts | 147° |
| 2026-04-15 10:32 | 33.63670 | 135.38800 | 1585 ft | 197 kts | 139° |
| 2026-04-15 10:32 | 33.62819 | 135.40033 | 2396 ft | 196 kts | 117° |
| 2026-04-15 10:32 | 33.62384 | 135.41551 | 3158 ft | 197 kts | 97° |
| 2026-04-15 10:32 | 33.62357 | 135.43211 | 3873 ft | 204 kts | 86° |
| 2026-04-15 10:33 | 33.62724 | 135.44859 | 4590 ft | 211 kts | 66° |
| 2026-04-15 10:33 | 33.63351 | 135.46469 | 5298 ft | 227 kts | 47° |
| 2026-04-15 10:33 | 33.64654 | 135.47876 | 5294 ft | 278 kts | 38° |
| 2026-04-15 10:33 | 33.65851 | 135.49854 | 5213 ft | 301 kts | 63° |
| 2026-04-15 10:34 | 33.66643 | 135.52159 | 5112 ft | 300 kts | 64° |
| 2026-04-15 10:34 | 33.67383 | 135.54387 | 6916 ft | 284 kts | 65° |
| 2026-04-15 10:34 | 33.68227 | 135.56316 | 8405 ft | 274 kts | 49° |
| 2026-04-15 10:34 | 33.69541 | 135.58223 | 8835 ft | 307 kts | 46° |
| 2026-04-15 10:35 | 33.70927 | 135.60053 | 10410 ft | 294 kts | 43° |
| 2026-04-15 10:35 | 33.72367 | 135.61848 | 11076 ft | 317 kts | 43° |
| 2026-04-15 10:35 | 33.74009 | 135.63855 | 11239 ft | 356 kts | 43° |
| 2026-04-15 10:35 | 33.75773 | 135.66010 | 12213 ft | 365 kts | 44° |
| 2026-04-15 10:36 | 33.77533 | 135.68158 | 13485 ft | 363 kts | 43° |
| 2026-04-15 10:36 | 33.79346 | 135.70377 | 13961 ft | 384 kts | 43° |
| 2026-04-15 10:36 | 33.81200 | 135.72643 | 15149 ft | 380 kts | 44° |
| 2026-04-15 10:36 | 33.83071 | 135.74927 | 15938 ft | 389 kts | 43° |
| 2026-04-15 10:37 | 33.85006 | 135.77290 | 16674 ft | 398 kts | 43° |
| 2026-04-15 10:37 | 33.86931 | 135.79640 | 17561 ft | 400 kts | 44° |
| 2026-04-15 10:37 | 33.88899 | 135.82062 | 18340 ft | 405 kts | 43° |
| 2026-04-15 10:37 | 33.90892 | 135.84494 | 19007 ft | 414 kts | 43° |
| 2026-04-15 10:38 | 33.92920 | 135.86981 | 19868 ft | 415 kts | 43° |
| 2026-04-15 10:38 | 33.94931 | 135.89447 | 20565 ft | 421 kts | 43° |
| 2026-04-15 10:38 | 33.97017 | 135.92006 | 21228 ft | 427 kts | 43° |
| 2026-04-15 10:38 | 33.99068 | 135.94528 | 21978 ft | 429 kts | 43° |
| 2026-04-15 10:39 | 34.01171 | 135.97116 | 22610 ft | 435 kts | 44° |
| 2026-04-15 10:39 | 34.03308 | 135.99744 | 23273 ft | 439 kts | 44° |
| 2026-04-15 10:39 | 34.05443 | 136.02374 | 23940 ft | 442 kts | 44° |
| 2026-04-15 10:39 | 34.07619 | 136.05058 | 24495 ft | 448 kts | 44° |
| 2026-04-15 10:40 | 34.09794 | 136.07742 | 25082 ft | 453 kts | 43° |
| 2026-04-15 10:40 | 34.11999 | 136.10467 | 25746 ft | 455 kts | 43° |
| 2026-04-15 10:40 | 34.14239 | 136.13237 | 26276 ft | 460 kts | 44° |
| 2026-04-15 10:40 | 34.16479 | 136.16003 | 26759 ft | 466 kts | 44° |
| 2026-04-15 10:41 | 34.18752 | 136.18814 | 27462 ft | 466 kts | 41° |
| 2026-04-15 10:41 | 34.21342 | 136.21138 | 27821 ft | 467 kts | 25° |
| 2026-04-15 10:41 | 34.24159 | 136.23097 | 28383 ft | 470 kts | 27° |
| 2026-04-15 10:41 | 34.26978 | 136.25122 | 29164 ft | 467 kts | 28° |
| 2026-04-15 10:42 | 34.29760 | 136.27158 | 29929 ft | 464 kts | 27° |
| 2026-04-15 10:42 | 34.32530 | 136.29196 | 30301 ft | 468 kts | 27° |
| 2026-04-15 10:42 | 34.35319 | 136.31249 | 30735 ft | 470 kts | 27° |
| 2026-04-15 10:42 | 34.38103 | 136.33304 | 31298 ft | 468 kts | 26° |
| 2026-04-15 10:43 | 34.40895 | 136.35359 | 31757 ft | 467 kts | 26° |
| 2026-04-15 10:43 | 34.43655 | 136.37396 | 32152 ft | 469 kts | 25° |
| 2026-04-15 10:43 | 34.46461 | 136.39470 | 32606 ft | 467 kts | 25° |
| 2026-04-15 10:43 | 34.49237 | 136.41522 | 33072 ft | 465 kts | 24° |
| 2026-04-15 10:44 | 34.52003 | 136.43567 | 33479 ft | 464 kts | 24° |
| 2026-04-15 10:44 | 34.54785 | 136.45619 | 33830 ft | 466 kts | 24° |
| 2026-04-15 10:44 | 34.57545 | 136.47662 | 34153 ft | 467 kts | 24° |
| 2026-04-15 10:44 | 34.60347 | 136.49739 | 34529 ft | 466 kts | 24° |
| 2026-04-15 10:45 | 34.63102 | 136.51782 | 34823 ft | 467 kts | 24° |
| 2026-04-15 10:45 | 34.65876 | 136.53842 | 35123 ft | 469 kts | 24° |
| 2026-04-15 10:45 | 34.68663 | 136.55914 | 35435 ft | 469 kts | 23° |
| 2026-04-15 10:45 | 34.71449 | 136.57985 | 35715 ft | 470 kts | 23° |
| 2026-04-15 10:46 | 34.74266 | 136.60082 | 35984 ft | 471 kts | 23° |
| 2026-04-15 10:46 | 34.77060 | 136.62163 | 36237 ft | 472 kts | 23° |
| 2026-04-15 10:46 | 34.79876 | 136.64261 | 36483 ft | 472 kts | 23° |
| 2026-04-15 10:46 | 34.82687 | 136.66359 | 36668 ft | 474 kts | 23° |
| 2026-04-15 10:47 | 34.85513 | 136.68468 | 36824 ft | 476 kts | 23° |
| 2026-04-15 10:47 | 34.88348 | 136.70587 | 37049 ft | 475 kts | 23° |
| 2026-04-15 10:47 | 34.91157 | 136.72691 | 37158 ft | 464 kts | 23° |
| 2026-04-15 10:47 | 34.93855 | 136.74719 | 37205 ft | 442 kts | 22° |
| 2026-04-15 10:48 | 34.96432 | 136.76648 | 37307 ft | 430 kts | 22° |
| 2026-04-15 10:48 | 34.98999 | 136.78564 | 37424 ft | 430 kts | 22° |
| 2026-04-15 10:48 | 35.01546 | 136.80473 | 37538 ft | 431 kts | 22° |
| 2026-04-15 10:48 | 35.04117 | 136.82404 | 37660 ft | 432 kts | 22° |
| 2026-04-15 10:49 | 35.06682 | 136.84329 | 37750 ft | 434 kts | 22° |
| 2026-04-15 10:49 | 35.11841 | 136.88211 | 37587 ft | 430 kts | 22° |
| 2026-04-15 10:49 | 35.14399 | 136.90128 | 36886 ft | 433 kts | 23° |
| 2026-04-15 10:50 | 35.16958 | 136.92058 | 36915 ft | 430 kts | 23° |
| 2026-04-15 10:50 | 35.22127 | 136.95960 | 36891 ft | 441 kts | 23° |
| 2026-04-15 10:51 | 35.27450 | 136.99980 | 37018 ft | 454 kts | 24° |
| 2026-04-15 10:51 | 35.30161 | 137.02029 | 36900 ft | 463 kts | 24° |
| 2026-04-15 10:51 | 35.32943 | 137.04137 | 36913 ft | 470 kts | 24° |
| 2026-04-15 10:52 | 35.38547 | 137.08388 | 36891 ft | 479 kts | 24° |
| 2026-04-15 10:52 | 35.44309 | 137.12761 | 36891 ft | 491 kts | 25° |
| 2026-04-15 10:53 | 35.50198 | 137.17241 | 36900 ft | 504 kts | 25° |
| 2026-04-15 10:53 | 35.56220 | 137.21829 | 36900 ft | 515 kts | 25° |
| 2026-04-15 10:54 | 35.62381 | 137.26535 | 36914 ft | 517 kts | 25° |
| 2026-04-15 10:54 | 35.68472 | 137.31194 | 36909 ft | 514 kts | 25° |
| 2026-04-15 10:55 | 35.74554 | 137.35852 | 36920 ft | 514 kts | 25° |
| 2026-04-15 10:55 | 35.80629 | 137.40515 | 36909 ft | 515 kts | 25° |
| 2026-04-15 10:56 | 35.86696 | 137.45181 | 36921 ft | 515 kts | 25° |
| 2026-04-15 10:56 | 35.92795 | 137.49880 | 36929 ft | 516 kts | 25° |
| 2026-04-15 10:57 | 35.98897 | 137.54588 | 36967 ft | 516 kts | 25° |
| 2026-04-15 10:57 | 36.08048 | 137.61667 | 36957 ft | 515 kts | 25° |
| 2026-04-15 10:58 | 36.14127 | 137.66380 | 36940 ft | 515 kts | 26° |
| 2026-04-15 10:58 | 36.20209 | 137.71104 | 36948 ft | 516 kts | 26° |
| 2026-04-15 10:59 | 36.26279 | 137.75829 | 36939 ft | 515 kts | 26° |
| 2026-04-15 10:59 | 36.32385 | 137.80589 | 36936 ft | 515 kts | 26° |
| 2026-04-15 11:00 | 36.38449 | 137.85326 | 36936 ft | 516 kts | 26° |
| 2026-04-15 11:00 | 36.44510 | 137.90070 | 36943 ft | 516 kts | 26° |
| 2026-04-15 11:01 | 36.50607 | 137.94849 | 36939 ft | 515 kts | 26° |
| 2026-04-15 11:01 | 36.56656 | 137.99602 | 36936 ft | 516 kts | 26° |
| 2026-04-15 11:02 | 36.62727 | 138.04379 | 36935 ft | 515 kts | 26° |
| 2026-04-15 11:02 | 36.67876 | 138.08440 | 36928 ft | 515 kts | 26° |